Time;durP1;ratioP1;P1;durP2;ratioP2;P2;SDS_P1;SDS_P2;PMS_P1;PMS_P2;Temp;Humidity;BMP_temperature;BMP_pressure;BME280_temperature;BME280_humidity;BME280_pressure;Samples;Min_cycle;Max_cycle;Signal;HPM_P1;HPM_P2
2022/06/29 00:00:38;;;;;;;3.50;1.38;;;19.80;99.90;;;;;;5038002;28;20203;-66
2022/06/29 00:03:06;;;;;;;2.63;1.30;;;19.80;99.90;;;;;;5031922;28;20196;-66
2022/06/29 00:05:33;;;;;;;2.37;1.40;;;19.80;99.90;;;;;;5034856;28;20265;-66
2022/06/29 00:07:59;;;;;;;2.13;1.30;;;19.80;99.90;;;;;;5037919;28;20198;-66
2022/06/29 00:10:34;;;;;;;2.40;1.40;;;19.80;99.90;;;;;;5047968;28;20199;-66
2022/06/29 00:13:02;;;;;;;1.90;1.30;;;19.70;99.90;;;;;;5040705;28;20203;-66
2022/06/29 00:15:29;;;;;;;1.25;1.10;;;19.70;99.90;;;;;;5036736;28;20314;-66
2022/06/29 00:17:56;;;;;;;2.25;1.67;;;19.70;99.90;;;;;;5041167;28;20211;-66
2022/06/29 00:20:23;;;;;;;2.95;1.40;;;19.80;99.90;;;;;;5039641;28;20194;-66
2022/06/29 00:22:50;;;;;;;2.42;1.70;;;19.80;99.90;;;;;;5034844;28;20206;-66
2022/06/29 00:25:17;;;;;;;3.67;1.87;;;19.80;99.90;;;;;;5031451;28;20216;-66
2022/06/29 00:27:44;;;;;;;2.27;1.50;;;20.00;99.90;;;;;;5041831;28;20207;-66
2022/06/29 00:30:11;;;;;;;5.00;1.58;;;20.00;99.90;;;;;;5033694;28;20261;-66
2022/06/29 00:32:38;;;;;;;2.53;1.50;;;20.00;99.90;;;;;;5036057;28;20210;-66
2022/06/29 00:35:06;;;;;;;1.60;1.20;;;19.90;99.90;;;;;;5034275;28;20215;-66
2022/06/29 00:37:33;;;;;;;1.70;1.40;;;19.80;99.90;;;;;;5034717;28;20196;-66
2022/06/29 00:40:00;;;;;;;2.00;1.37;;;19.80;99.90;;;;;;5043647;28;20191;-66
2022/06/29 00:42:27;;;;;;;2.30;1.60;;;20.00;99.90;;;;;;5041795;28;20192;-66
2022/06/29 00:44:53;;;;;;;2.83;1.60;;;20.20;99.90;;;;;;5032305;28;20212;-68
2022/06/29 00:47:22;;;;;;;1.90;1.63;;;20.10;99.90;;;;;;5036022;28;20203;-68
2022/06/29 00:49:49;;;;;;;2.30;1.40;;;20.00;99.90;;;;;;5036721;28;20654;-68
2022/06/29 00:52:19;;;;;;;2.03;1.47;;;19.80;99.90;;;;;;5031787;28;20207;-69
2022/06/29 00:54:52;;;;;;;1.33;1.23;;;19.70;99.90;;;;;;5032315;28;20220;-68
2022/06/29 00:57:25;;;;;;;3.63;1.30;;;19.70;99.90;;;;;;5038431;28;20215;-69
2022/06/29 00:59:55;;;;;;;3.20;1.70;;;19.60;99.90;;;;;;5036203;28;20188;-66
2022/06/29 01:02:29;;;;;;;3.73;1.97;;;19.80;99.90;;;;;;5030506;28;20192;-66
2022/06/29 01:04:55;;;;;;;4.83;2.07;;;20.00;99.90;;;;;;5035944;28;20219;-66
2022/06/29 01:07:24;;;;;;;3.87;1.60;;;19.90;99.90;;;;;;5031736;28;20202;-68
2022/06/29 01:09:51;;;;;;;1.53;1.33;;;19.90;99.90;;;;;;5035929;28;20212;-66
2022/06/29 01:12:18;;;;;;;1.80;1.60;;;19.70;99.90;;;;;;5033543;28;20428;-66
2022/06/29 01:14:46;;;;;;;2.77;1.80;;;19.60;99.90;;;;;;5034257;28;20235;-69
2022/06/29 01:17:13;;;;;;;2.33;1.80;;;19.60;99.90;;;;;;5034415;28;20224;-69
2022/06/29 01:19:41;;;;;;;1.93;1.60;;;19.60;99.90;;;;;;5030619;28;20568;-69
2022/06/29 01:22:13;;;;;;;5.00;1.87;;;19.60;99.90;;;;;;5029756;28;20195;-66
2022/06/29 01:24:40;;;;;;;3.53;2.00;;;19.60;99.90;;;;;;5035791;28;20220;-66
2022/06/29 01:27:07;;;;;;;2.63;1.93;;;19.80;99.90;;;;;;5034876;28;20191;-66
2022/06/29 01:29:34;;;;;;;2.63;2.00;;;20.00;99.90;;;;;;5031063;28;20211;-66
2022/06/29 01:32:02;;;;;;;2.70;1.93;;;20.00;99.90;;;;;;5034298;28;20199;-66
2022/06/29 01:35:16;;;;;;;2.67;1.60;;;20.00;99.90;;;;;;5785427;22;20202;-67
2022/06/29 01:37:43;;;;;;;4.53;1.80;;;19.90;99.90;;;;;;4995004;28;20572;-66
2022/06/29 01:40:10;;;;;;;2.00;1.80;;;19.80;99.90;;;;;;5001281;28;20662;-66
2022/06/29 01:42:37;;;;;;;2.53;1.70;;;19.80;99.90;;;;;;4999312;28;20201;-66
2022/06/29 01:45:05;;;;;;;2.93;1.80;;;19.80;99.90;;;;;;5008294;28;20216;-66
2022/06/29 01:47:31;;;;;;;2.63;1.70;;;19.90;99.90;;;;;;5009943;28;20199;-66
2022/06/29 01:49:58;;;;;;;3.43;1.77;;;20.10;99.90;;;;;;5002526;28;20208;-66
2022/06/29 01:52:25;;;;;;;2.20;1.70;;;20.20;99.90;;;;;;5010194;28;20204;-66
2022/06/29 01:54:51;;;;;;;2.75;1.90;;;20.20;99.90;;;;;;5003042;28;20227;-67
2022/06/29 01:57:18;;;;;;;2.63;1.80;;;20.30;99.90;;;;;;5010729;28;20224;-66
2022/06/29 01:59:45;;;;;;;2.22;1.83;;;20.30;99.90;;;;;;5010237;28;20207;-66
2022/06/29 02:02:11;;;;;;;2.13;1.50;;;20.30;99.90;;;;;;4997595;28;20276;-66
2022/06/29 02:04:38;;;;;;;2.95;1.60;;;20.20;99.90;;;;;;4999090;28;20250;-66
2022/06/29 02:07:05;;;;;;;2.13;1.80;;;20.20;99.90;;;;;;5017445;28;20561;-66
2022/06/29 02:09:31;;;;;;;2.50;1.88;;;20.30;99.90;;;;;;5009505;28;20670;-66
2022/06/29 02:11:58;;;;;;;2.60;2.00;;;20.40;99.90;;;;;;4998562;28;20201;-68
2022/06/29 02:14:25;;;;;;;2.35;1.88;;;20.50;99.90;;;;;;5005165;28;20243;-69
2022/06/29 02:16:51;;;;;;;2.70;1.85;;;20.50;99.90;;;;;;5009615;28;20223;-68
2022/06/29 02:19:18;;;;;;;2.25;1.90;;;20.60;99.90;;;;;;5005937;28;20188;-69
2022/06/29 02:21:45;;;;;;;2.47;1.90;;;20.70;99.90;;;;;;5009799;28;20196;-68
2022/06/29 02:24:12;;;;;;;2.30;1.85;;;20.80;99.90;;;;;;5010775;28;20207;-68
2022/06/29 02:26:38;;;;;;;2.20;1.85;;;20.70;99.90;;;;;;5001501;28;20579;-68
2022/06/29 02:29:05;;;;;;;2.10;1.90;;;20.70;99.90;;;;;;5009990;28;20196;-69
2022/06/29 02:37:02;;;;;;;5.40;2.28;;;20.60;99.90;;;;;;5002172;28;20596;-68
2022/06/29 02:39:29;;;;;;;3.20;1.90;;;20.60;99.90;;;;;;5010121;28;20196;-68
2022/06/29 02:41:56;;;;;;;3.10;1.90;;;20.50;99.90;;;;;;5000343;28;20200;-68
2022/06/29 02:44:22;;;;;;;3.17;1.92;;;20.50;99.90;;;;;;5003049;28;20223;-68
2022/06/29 02:46:49;;;;;;;2.53;2.08;;;20.50;99.90;;;;;;5012095;28;20200;-69
2022/06/29 02:49:15;;;;;;;4.40;2.10;;;20.60;99.90;;;;;;5013855;28;20254;-68
2022/06/29 02:51:42;;;;;;;2.58;1.98;;;20.70;99.90;;;;;;5010413;28;20662;-66
2022/06/29 02:54:09;;;;;;;3.63;2.05;;;20.70;99.90;;;;;;5018014;28;20196;-66
2022/06/29 02:56:36;;;;;;;3.95;2.00;;;20.90;99.90;;;;;;5013327;28;20223;-67
2022/06/29 02:59:02;;;;;;;2.55;2.08;;;20.90;99.90;;;;;;5013141;28;20681;-66
2022/06/29 03:01:29;;;;;;;2.65;1.90;;;20.70;99.90;;;;;;5006517;28;20193;-66
2022/06/29 03:03:56;;;;;;;2.10;1.75;;;20.50;99.90;;;;;;5013269;28;20734;-66
2022/06/29 03:06:22;;;;;;;2.95;1.77;;;20.60;99.90;;;;;;5013143;28;20625;-66
2022/06/29 03:08:49;;;;;;;3.67;2.28;;;20.60;99.90;;;;;;5005513;28;20200;-69
2022/06/29 03:11:16;;;;;;;2.10;1.90;;;20.50;99.90;;;;;;5006736;28;20201;-68
2022/06/29 03:13:42;;;;;;;2.05;1.83;;;20.40;99.90;;;;;;5013524;28;20200;-68
2022/06/29 03:16:09;;;;;;;3.40;2.03;;;20.30;99.90;;;;;;5011505;28;20605;-69
2022/06/29 03:18:36;;;;;;;1.95;1.75;;;20.40;99.90;;;;;;5009596;28;20192;-69
2022/06/29 03:21:03;;;;;;;2.47;1.90;;;20.50;99.90;;;;;;5013399;28;20216;-66
2022/06/29 03:23:29;;;;;;;2.63;2.10;;;20.60;99.90;;;;;;5017105;28;20196;-66
2022/06/29 03:25:56;;;;;;;2.50;2.00;;;20.60;99.90;;;;;;5006287;28;20224;-69
2022/06/29 03:28:23;;;;;;;2.63;1.70;;;20.50;99.90;;;;;;5012856;28;20192;-68
2022/06/29 03:30:49;;;;;;;2.05;1.85;;;20.40;99.90;;;;;;5012560;28;20669;-68
2022/06/29 03:33:16;;;;;;;4.50;2.17;;;20.40;99.90;;;;;;5009812;28;20217;-69
2022/06/29 03:35:43;;;;;;;3.53;2.35;;;20.30;99.90;;;;;;5006290;28;20217;-68
2022/06/29 03:38:10;;;;;;;4.25;2.90;;;20.40;99.90;;;;;;5012825;28;20212;-68
2022/06/29 03:40:36;;;;;;;3.28;2.10;;;20.60;99.90;;;;;;5012862;28;20677;-68
2022/06/29 03:43:03;;;;;;;4.50;2.05;;;20.60;99.90;;;;;;5008690;28;20682;-68
2022/06/29 03:45:30;;;;;;;5.30;2.42;;;20.60;99.90;;;;;;5012734;28;20216;-68
2022/06/29 03:47:57;;;;;;;2.63;2.15;;;20.70;99.90;;;;;;5012716;28;20681;-69
2022/06/29 03:50:23;;;;;;;2.47;2.15;;;20.70;99.90;;;;;;5009099;28;20197;-68
2022/06/29 03:52:50;;;;;;;3.53;2.08;;;20.70;99.90;;;;;;5009111;28;20208;-69
2022/06/29 03:55:17;;;;;;;2.40;2.10;;;20.60;99.90;;;;;;5011072;28;20703;-68
2022/06/29 03:57:43;;;;;;;2.60;1.92;;;20.70;99.90;;;;;;5006844;28;20568;-69
2022/06/29 04:00:10;;;;;;;2.80;2.20;;;20.60;99.90;;;;;;5012306;28;20199;-68
2022/06/29 04:02:37;;;;;;;4.57;2.25;;;20.60;99.90;;;;;;5008660;28;20196;-68
2022/06/29 04:05:04;;;;;;;3.67;2.08;;;20.70;99.90;;;;;;5011656;28;20235;-68
2022/06/29 04:07:32;;;;;;;2.47;2.00;;;20.70;99.90;;;;;;5012282;28;20223;-69
2022/06/29 04:10:01;;;;;;;2.80;1.83;;;20.80;99.90;;;;;;5010883;28;20254;-68
2022/06/29 04:12:36;;;;;;;2.20;1.98;;;20.70;99.90;;;;;;5004834;28;20208;-69
2022/06/29 04:15:04;;;;;;;2.40;2.10;;;20.70;99.90;;;;;;5007144;28;20224;-68
2022/06/29 04:17:31;;;;;;;2.22;2.03;;;20.80;99.90;;;;;;5008124;28;20216;-68
2022/06/29 04:19:58;;;;;;;3.08;2.22;;;20.90;99.90;;;;;;5006069;28;20664;-68
2022/06/29 04:22:25;;;;;;;2.25;2.00;;;21.10;99.90;;;;;;5000211;28;20638;-69
2022/06/29 04:24:51;;;;;;;2.80;2.40;;;21.20;99.90;;;;;;5012658;28;20224;-69
2022/06/29 04:27:18;;;;;;;3.20;2.10;;;21.30;99.90;;;;;;5001137;28;20200;-68
2022/06/29 04:29:45;;;;;;;3.55;2.30;;;21.20;99.90;;;;;;5009516;28;20223;-68
2022/06/29 04:32:12;;;;;;;4.13;2.05;;;21.10;99.90;;;;;;5011593;28;20739;-69
2022/06/29 04:34:40;;;;;;;3.35;2.10;;;21.10;99.90;;;;;;5004837;28;20224;-68
2022/06/29 04:37:07;;;;;;;2.60;2.10;;;21.20;99.90;;;;;;4996062;28;20227;-68
2022/06/29 04:39:34;;;;;;;4.85;2.08;;;21.30;99.90;;;;;;5011697;28;20200;-68
2022/06/29 04:42:01;;;;;;;3.10;1.98;;;21.40;99.90;;;;;;5011493;28;20662;-68
2022/06/29 04:44:28;;;;;;;2.97;2.10;;;21.50;99.90;;;;;;5013017;28;20216;-68
2022/06/29 04:46:54;;;;;;;2.22;2.03;;;21.60;99.90;;;;;;5003203;28;20600;-69
2022/06/29 04:49:22;;;;;;;3.00;2.40;;;21.60;99.90;;;;;;5011235;28;20647;-68
2022/06/29 04:51:49;;;;;;;3.80;2.35;;;21.80;99.90;;;;;;5009942;28;20725;-68
2022/06/29 04:54:16;;;;;;;3.15;2.42;;;21.80;99.90;;;;;;5009920;28;20211;-69
2022/06/29 04:56:43;;;;;;;3.15;2.42;;;21.80;99.90;;;;;;5004330;28;20220;-68
2022/06/29 04:59:09;;;;;;;2.85;2.17;;;21.90;99.90;;;;;;5010005;28;20192;-68
2022/06/29 05:01:37;;;;;;;4.15;2.63;;;22.10;99.90;;;;;;5010925;28;20196;-70
2022/06/29 05:04:04;;;;;;;5.80;2.38;;;22.10;99.90;;;;;;5009024;28;20200;-68
2022/06/29 05:06:31;;;;;;;3.95;2.67;;;22.10;99.90;;;;;;4995426;28;20201;-68
2022/06/29 05:08:58;;;;;;;5.43;2.60;;;22.10;99.90;;;;;;5009939;28;20227;-68
2022/06/29 05:11:25;;;;;;;4.28;2.45;;;22.10;99.90;;;;;;5001926;28;20192;-69
2022/06/29 05:13:52;;;;;;;3.38;2.38;;;22.20;99.90;;;;;;5003769;28;20742;-68
2022/06/29 05:16:20;;;;;;;3.15;2.22;;;22.20;99.90;;;;;;5003716;28;20241;-69
2022/06/29 05:18:47;;;;;;;5.15;2.22;;;22.20;99.90;;;;;;5007667;28;20288;-69
2022/06/29 05:21:15;;;;;;;4.18;2.60;;;22.40;99.90;;;;;;5003103;28;20219;-68
2022/06/29 05:23:44;;;;;;;3.80;2.60;;;22.50;99.90;;;;;;5006279;28;20196;-68
2022/06/29 05:26:10;;;;;;;3.20;2.42;;;22.70;99.90;;;;;;5010711;28;20227;-68
2022/06/29 05:28:37;;;;;;;6.43;2.55;;;22.90;99.90;;;;;;5010680;28;20716;-68
2022/06/29 05:31:04;;;;;;;4.30;2.75;;;23.20;99.90;;;;;;5006776;28;20200;-69
2022/06/29 05:33:36;;;;;;;2.97;2.65;;;23.50;99.90;;;;;;5012401;28;20203;-68
2022/06/29 05:36:08;;;;;;;4.78;2.95;;;23.70;99.90;;;;;;5001223;28;20732;-68
2022/06/29 05:38:35;;;;;;;5.30;3.00;;;24.00;99.90;;;;;;5010885;28;20224;-69
2022/06/29 05:41:03;;;;;;;3.72;2.63;;;24.20;99.90;;;;;;4994352;28;20198;-68
2022/06/29 05:43:30;;;;;;;3.75;2.97;;;24.40;99.90;;;;;;5010413;28;20199;-69
2022/06/29 05:45:58;;;;;;;4.57;3.30;;;24.60;99.90;;;;;;5008614;28;20239;-68
2022/06/29 05:48:25;;;;;;;3.67;3.00;;;24.90;99.90;;;;;;5008692;28;20196;-68
2022/06/29 05:50:52;;;;;;;6.63;2.60;;;24.90;99.90;;;;;;5006516;28;20550;-68
2022/06/29 05:53:19;;;;;;;5.35;2.83;;;25.10;99.90;;;;;;5004581;28;20196;-69
2022/06/29 05:55:46;;;;;;;5.97;3.10;;;25.20;99.90;;;;;;5007993;28;20220;-68
2022/06/29 05:58:18;;;;;;;6.97;2.92;;;25.40;99.90;;;;;;5009817;28;20223;-69
2022/06/29 06:00:46;;;;;;;6.13;3.00;;;25.40;99.90;;;;;;5008691;28;20278;-69
2022/06/29 06:03:13;;;;;;;5.07;3.33;;;25.20;99.90;;;;;;5003799;28;20200;-68
2022/06/29 06:05:39;;;;;;;3.70;2.92;;;25.50;99.90;;;;;;5007161;28;20262;-68
2022/06/29 06:08:06;;;;;;;3.70;2.83;;;25.40;99.90;;;;;;5010097;28;20193;-69
2022/06/29 06:10:33;;;;;;;4.55;3.40;;;25.70;99.90;;;;;;5008810;28;20665;-68
2022/06/29 06:12:59;;;;;;;4.97;3.33;;;25.80;99.90;;;;;;5006563;28;20215;-69
2022/06/29 06:15:26;;;;;;;3.80;3.42;;;26.10;99.90;;;;;;5008220;28;20216;-69
2022/06/29 06:17:53;;;;;;;8.15;3.30;;;26.30;99.90;;;;;;5009862;28;20228;-69
2022/06/29 06:20:19;;;;;;;5.88;3.22;;;26.20;99.90;;;;;;5008005;28;20211;-68
2022/06/29 06:22:46;;;;;;;7.32;3.97;;;26.10;99.90;;;;;;5006412;28;20196;-69
2022/06/29 06:25:13;;;;;;;4.88;3.53;;;26.20;99.90;;;;;;5003052;28;20216;-70
2022/06/29 06:27:39;;;;;;;5.55;3.63;;;26.10;99.90;;;;;;5010547;28;20196;-68
2022/06/29 06:30:07;;;;;;;3.78;3.42;;;26.10;99.90;;;;;;5004682;28;20679;-68
2022/06/29 06:32:33;;;;;;;4.57;3.70;;;26.10;99.90;;;;;;5001332;28;20658;-68
2022/06/29 06:35:00;;;;;;;5.57;3.42;;;26.10;99.90;;;;;;5001040;28;20216;-66
2022/06/29 06:37:27;;;;;;;6.47;3.78;;;26.00;99.90;;;;;;5002566;28;20227;-66
2022/06/29 06:42:40;;;;;;;4.90;3.67;;;25.80;99.90;;;;;;5010269;28;20192;-66
2022/06/29 06:45:07;;;;;;;6.20;4.13;;;25.80;99.90;;;;;;5008290;28;20226;-66
2022/06/29 06:47:34;;;;;;;3.92;3.60;;;25.70;99.90;;;;;;5012997;28;20212;-66
2022/06/29 06:50:01;;;;;;;6.65;4.25;;;25.70;99.90;;;;;;5008293;28;20204;-66
2022/06/29 06:52:29;;;;;;;5.18;3.95;;;25.70;99.90;;;;;;5004554;28;20207;-66
2022/06/29 06:54:56;;;;;;;8.50;4.22;;;25.80;99.90;;;;;;5008296;28;20235;-66
2022/06/29 06:57:23;;;;;;;6.60;4.10;;;25.70;99.90;;;;;;5003111;28;20228;-66
2022/06/29 06:59:53;;;;;;;5.15;4.35;;;25.80;99.90;;;;;;5008086;28;20545;-67
2022/06/29 07:02:20;;;;;;;11.32;4.13;;;25.80;99.90;;;;;;5007509;28;20215;-67
2022/06/29 07:04:47;;;;;;;6.85;4.50;;;25.90;99.90;;;;;;4993175;28;20217;-67
2022/06/29 07:07:14;;;;;;;4.80;4.30;;;26.00;99.90;;;;;;5001863;28;20333;-67
2022/06/29 07:09:41;;;;;;;8.88;4.90;;;25.70;99.90;;;;;;5000850;28;20212;-67
2022/06/29 07:12:08;;;;;;;5.82;4.43;;;25.80;99.90;;;;;;5024653;28;20196;-67
2022/06/29 07:14:34;;;;;;;8.70;5.72;;;25.80;99.90;;;;;;5007527;28;20593;-66
2022/06/29 07:17:01;;;;;;;9.55;4.68;;;25.90;99.90;;;;;;5008961;28;20207;-67
2022/06/29 07:19:28;;;;;;;8.00;5.25;;;25.80;99.90;;;;;;5007729;28;20228;-67
2022/06/29 07:21:55;;;;;;;9.55;4.90;;;25.80;99.90;;;;;;5009366;28;20224;-66
2022/06/29 07:24:22;;;;;;;5.63;5.00;;;26.20;99.90;;;;;;5008888;28;20223;-66
2022/06/29 07:26:48;;;;;;;5.78;4.72;;;26.40;99.90;;;;;;5003789;28;20763;-66
2022/06/29 07:29:15;;;;;;;5.50;4.82;;;26.50;99.90;;;;;;5003884;28;20208;-67
2022/06/29 07:31:42;;;;;;;8.85;4.72;;;26.70;99.90;;;;;;5000550;28;20204;-67
2022/06/29 07:34:09;;;;;;;5.82;4.95;;;26.90;99.90;;;;;;5010715;28;20195;-67
2022/06/29 07:36:35;;;;;;;5.18;4.63;;;27.10;99.90;;;;;;5004309;28;20209;-67
2022/06/29 07:39:02;;;;;;;10.30;5.45;;;27.40;99.90;;;;;;5009091;28;20232;-67
2022/06/29 07:41:29;;;;;;;7.20;4.90;;;27.60;99.90;;;;;;5008078;28;20204;-67
2022/06/29 07:43:56;;;;;;;7.45;5.30;;;27.80;99.90;;;;;;5011788;28;20283;-67
2022/06/29 07:46:23;;;;;;;7.75;5.03;;;28.10;99.90;;;;;;5003293;28;20220;-67
2022/06/29 07:48:51;;;;;;;6.20;5.13;;;28.40;99.90;;;;;;5012036;28;20200;-67
2022/06/29 07:51:17;;;;;;;5.97;5.10;;;28.70;99.90;;;;;;5012152;28;20204;-67
2022/06/29 07:53:44;;;;;;;10.85;5.43;;;29.00;99.90;;;;;;5008064;28;20290;-67
2022/06/29 07:56:11;;;;;;;7.32;4.97;;;29.30;99.90;;;;;;5011640;28;20218;-67
2022/06/29 07:58:37;;;;;;;7.25;5.38;;;29.80;99.90;;;;;;5011673;28;20227;-67
2022/06/29 08:01:04;;;;;;;6.57;4.93;;;30.00;99.90;;;;;;4995889;28;20211;-67
2022/06/29 08:03:31;;;;;;;6.43;4.95;;;29.90;99.90;;;;;;5000226;28;20192;-67
2022/06/29 08:05:59;;;;;;;5.65;4.70;;;29.40;99.90;;;;;;5012212;28;20208;-67
2022/06/29 08:08:26;;;;;;;7.75;5.13;;;29.60;99.90;;;;;;5010224;28;20197;-67
2022/06/29 08:10:53;;;;;;;5.78;5.10;;;29.50;99.90;;;;;;5010573;28;20669;-67
2022/06/29 08:13:19;;;;;;;7.20;5.25;;;29.30;99.90;;;;;;5011862;28;20196;-67
2022/06/29 08:15:46;;;;;;;6.13;5.07;;;29.30;99.90;;;;;;5003116;28;20232;-67
2022/06/29 08:18:14;;;;;;;6.47;5.20;;;29.10;99.90;;;;;;5005659;28;20243;-67
2022/06/29 08:20:41;;;;;;;7.00;4.70;;;29.40;99.90;;;;;;5003653;28;20208;-68
2022/06/29 08:23:08;;;;;;;5.05;4.50;;;29.90;99.90;;;;;;5016947;28;20188;-67
2022/06/29 08:25:35;;;;;;;5.82;4.95;;;30.60;99.90;;;;;;5003278;28;20213;-67
2022/06/29 08:28:02;;;;;;;7.35;5.30;;;31.10;99.90;;;;;;4995828;28;20688;-67
2022/06/29 08:30:29;;;;;;;5.93;5.13;;;31.00;99.90;;;;;;5010311;28;20211;-67
2022/06/29 08:32:56;;;;;;;9.25;5.35;;;30.70;99.90;;;;;;5011219;28;20295;-67
2022/06/29 08:35:23;;;;;;;5.75;5.10;;;30.10;99.90;;;;;;5003599;28;20221;-67
2022/06/29 08:37:50;;;;;;;6.90;4.93;;;29.90;99.90;;;;;;5010491;28;20219;-67
2022/06/29 08:40:17;;;;;;;6.65;4.97;;;30.00;99.90;;;;;;5004085;28;20568;-67
2022/06/29 08:42:45;;;;;;;5.72;5.07;;;30.30;99.90;;;;;;5009755;28;20196;-67
2022/06/29 08:45:14;;;;;;;6.82;5.07;;;30.30;99.90;;;;;;5006524;28;20216;-67
2022/06/29 08:47:41;;;;;;;8.48;5.57;;;30.20;99.90;;;;;;5003091;28;20716;-67
2022/06/29 08:50:10;;;;;;;7.97;4.88;;;30.50;99.90;;;;;;5011115;28;20207;-67
2022/06/29 08:52:38;;;;;;;6.13;5.07;;;31.00;99.90;;;;;;5006481;28;20586;-67
2022/06/29 08:55:07;;;;;;;8.10;5.03;;;31.50;99.90;;;;;;5003298;28;20224;-67
2022/06/29 08:57:41;;;;;;;7.90;5.43;;;32.10;99.90;;;;;;5003146;28;20225;-67
2022/06/29 09:00:10;;;;;;;6.88;4.95;;;31.80;99.90;;;;;;5003920;28;20616;-67
2022/06/29 09:02:37;;;;;;;7.80;5.25;;;31.80;99.90;;;;;;5002951;28;20200;-68
2022/06/29 09:05:05;;;;;;;7.93;4.63;;;32.00;99.90;;;;;;5007008;28;20213;-67
2022/06/29 09:07:31;;;;;;;9.95;5.00;;;32.10;99.90;;;;;;4991858;28;20568;-68
2022/06/29 09:10:07;;;;;;;6.90;5.53;;;32.40;99.90;;;;;;5002452;28;20199;-68
2022/06/29 09:12:34;;;;;;;7.18;4.90;;;32.60;99.90;;;;;;5006308;28;20254;-67
2022/06/29 09:15:04;;;;;;;7.65;5.05;;;33.10;99.90;;;;;;5010371;28;20212;-68
2022/06/29 09:17:33;;;;;;;5.65;4.90;;;33.30;99.90;;;;;;5009668;28;20192;-67
2022/06/29 09:19:59;;;;;;;8.45;4.80;;;33.50;99.90;;;;;;5000171;28;20655;-68
2022/06/29 09:22:55;;;;;;;5.60;4.65;;;33.60;99.90;;;;;;5008396;28;20263;-67
2022/06/29 09:25:31;;;;;;;5.47;4.90;;;33.60;99.90;;;;;;5015221;28;20218;-68
2022/06/29 09:27:59;;;;;;;5.43;4.93;;;33.50;99.90;;;;;;5009656;28;20662;-67
2022/06/29 09:30:30;;;;;;;7.30;5.13;;;33.20;99.90;;;;;;5005619;28;20196;-67
2022/06/29 09:33:06;;;;;;;5.68;5.10;;;33.10;99.90;;;;;;5008826;28;20208;-67
2022/06/29 09:35:37;;;;;;;6.03;5.43;;;33.10;99.90;;;;;;5010134;28;20666;-67
2022/06/29 09:38:21;;;;;;;9.32;5.15;;;33.10;99.90;;;;;;5002364;28;20298;-68
2022/06/29 09:41:05;;;;;;;6.53;5.18;;;33.20;99.90;;;;;;5009213;28;20200;-67
2022/06/29 09:43:35;;;;;;;6.20;5.43;;;32.80;99.90;;;;;;5012595;28;20191;-67
2022/06/29 09:46:03;;;;;;;6.43;5.40;;;32.10;99.90;;;;;;5001884;28;20212;-67
2022/06/29 09:48:32;;;;;;;7.55;5.40;;;31.50;99.90;;;;;;5010240;28;20713;-67
2022/06/29 09:50:59;;;;;;;9.00;6.13;;;31.20;99.90;;;;;;5009856;28;20587;-67
2022/06/29 09:53:37;;;;;;;7.78;5.53;;;31.20;99.90;;;;;;5009599;28;20287;-68
2022/06/29 09:56:06;;;;;;;8.20;6.10;;;31.00;99.90;;;;;;4996760;28;20274;-67
2022/06/29 09:58:44;;;;;;;8.55;5.22;;;31.30;99.90;;;;;;5010286;28;20227;-67
2022/06/29 10:04:00;;;;;;;9.18;5.38;;;31.90;99.90;;;;;;4994358;28;20287;-67
2022/06/29 10:06:27;;;;;;;9.38;6.20;;;32.30;99.90;;;;;;5003667;28;20197;-68
2022/06/29 10:09:02;;;;;;;5.93;5.10;;;31.90;99.90;;;;;;5001586;28;20670;-69
2022/06/29 10:14:54;;;;;;;8.25;5.90;;;32.30;99.90;;;;;;5010823;28;20219;-69
2022/06/29 10:17:51;;;;;;;6.65;5.60;;;32.30;99.90;;;;;;5010239;28;20713;-69
2022/06/29 10:20:30;;;;;;;7.15;6.20;;;31.80;99.90;;;;;;5001674;28;20200;-70
2022/06/29 10:22:57;;;;;;;9.82;6.07;;;31.70;99.90;;;;;;5006299;28;20192;-69
2022/06/29 10:25:27;;;;;;;7.57;6.45;;;31.70;99.90;;;;;;5004037;28;20239;-69
2022/06/29 10:28:16;;;;;;;6.70;6.05;;;31.80;99.90;;;;;;5001797;28;20205;-69
2022/06/29 10:30:44;;;;;;;10.68;6.40;;;32.10;99.90;;;;;;5006228;28;20212;-69
2022/06/29 10:33:30;;;;;;;8.90;6.20;;;32.10;99.90;;;;;;4998397;28;20655;-69
2022/06/29 10:36:08;;;;;;;7.75;6.10;;;31.70;99.90;;;;;;5013464;28;20265;-69
2022/06/29 10:39:03;;;;;;;7.25;6.18;;;32.10;99.90;;;;;;5009755;28;20592;-69
2022/06/29 10:44:54;;;;;;;7.00;6.15;;;33.10;99.90;;;;;;5005215;28;20662;-69
2022/06/29 10:47:22;;;;;;;8.00;5.72;;;33.60;99.90;;;;;;5006033;28;20194;-69
2022/06/29 10:49:48;;;;;;;7.72;6.45;;;33.80;99.90;;;;;;5008190;28;20210;-68
2022/06/29 10:52:15;;;;;;;8.50;5.78;;;34.00;99.90;;;;;;5009747;28;20196;-67
2022/06/29 10:54:42;;;;;;;6.70;6.00;;;34.00;99.90;;;;;;5001144;28;20247;-67
2022/06/29 10:57:09;;;;;;;7.70;6.13;;;33.90;99.90;;;;;;4998735;28;20201;-67
2022/06/29 10:59:39;;;;;;;7.13;5.70;;;33.90;99.90;;;;;;4997856;28;20725;-67
2022/06/29 11:02:17;;;;;;;6.95;5.50;;;34.20;99.90;;;;;;5002308;28;20200;-67
2022/06/29 11:04:44;;;;;;;6.60;5.90;;;34.50;99.90;;;;;;5006749;28;20582;-67
2022/06/29 11:12:54;;;;;;;7.80;6.20;;;32.60;99.90;;;;;;5012741;28;20207;-67
2022/06/29 11:15:48;;;;;;;8.05;5.90;;;31.80;99.90;;;;;;5009521;28;20237;-67
2022/06/29 11:18:17;;;;;;;13.18;9.95;;;31.80;99.90;;;;;;4999087;28;20335;-67
2022/06/29 11:20:48;;;;;;;8.63;6.50;;;31.40;99.90;;;;;;5005621;28;20201;-67
2022/06/29 11:23:18;;;;;;;7.07;6.13;;;30.90;99.90;;;;;;5012250;28;20196;-67
2022/06/29 11:25:49;;;;;;;6.68;5.93;;;30.70;99.90;;;;;;5011996;28;20224;-67
2022/06/29 11:28:17;;;;;;;8.40;6.40;;;30.80;99.90;;;;;;5007696;28;20200;-67
2022/06/29 11:31:04;;;;;;;6.22;5.40;;;30.90;99.90;;;;;;5000778;28;20288;-67
2022/06/29 11:33:39;;;;;;;6.60;5.95;;;31.70;99.90;;;;;;5016754;28;20511;-67
2022/06/29 11:36:19;;;;;;;7.68;6.03;;;31.80;99.90;;;;;;5004718;28;20246;-67
2022/06/29 11:38:51;;;;;;;9.95;6.22;;;31.40;99.90;;;;;;5004618;28;20236;-67
2022/06/29 11:41:26;;;;;;;6.80;5.90;;;31.10;99.90;;;;;;5004321;28;20201;-68
2022/06/29 11:43:58;;;;;;;6.57;5.95;;;30.90;99.90;;;;;;5011576;28;20218;-67
2022/06/29 11:46:27;;;;;;;7.72;6.20;;;31.20;99.90;;;;;;5004773;28;20569;-67
2022/06/29 11:51:53;;;;;;;8.23;6.40;;;31.70;99.90;;;;;;5008017;28;20207;-67
2022/06/29 11:54:36;;;;;;;7.03;6.32;;;32.10;99.90;;;;;;5011597;28;20216;-67
2022/06/29 11:57:08;;;;;;;7.13;6.15;;;32.00;99.90;;;;;;5011823;28;20202;-67
2022/06/29 11:59:35;;;;;;;6.53;5.70;;;32.00;99.90;;;;;;5010016;28;20223;-67
2022/06/29 12:02:02;;;;;;;6.28;5.55;;;31.70;99.90;;;;;;5011605;28;20192;-67
2022/06/29 12:04:32;;;;;;;7.28;5.70;;;32.00;99.90;;;;;;5010662;28;20219;-67
2022/06/29 12:07:18;;;;;;;8.15;5.50;;;32.10;99.90;;;;;;5006940;28;20196;-68
2022/06/29 12:09:45;;;;;;;6.63;5.90;;;32.60;99.90;;;;;;5011215;28;20211;-67
2022/06/29 12:12:13;;;;;;;7.15;6.07;;;32.70;99.90;;;;;;5011449;28;20200;-67
2022/06/29 12:14:40;;;;;;;8.38;6.22;;;32.40;99.90;;;;;;5008476;28;20725;-67
2022/06/29 12:17:13;;;;;;;9.57;5.93;;;32.60;99.90;;;;;;5010698;28;20287;-68
2022/06/29 12:19:42;;;;;;;10.13;6.20;;;33.20;99.90;;;;;;5010719;28;20286;-67
2022/06/29 12:22:08;;;;;;;6.80;5.75;;;33.20;99.90;;;;;;5011081;28;20197;-67
2022/06/29 12:24:35;;;;;;;6.93;5.88;;;33.40;99.90;;;;;;5003391;28;20216;-67
2022/06/29 12:27:02;;;;;;;8.63;5.88;;;33.30;99.90;;;;;;5010661;28;20200;-68
2022/06/29 12:29:29;;;;;;;6.40;5.80;;;33.30;99.90;;;;;;5011996;28;20192;-67
2022/06/29 12:31:56;;;;;;;6.93;5.63;;;33.50;99.90;;;;;;5010131;28;20200;-67
2022/06/29 12:34:24;;;;;;;8.45;5.93;;;33.80;99.90;;;;;;5012259;28;20290;-68
2022/06/29 12:36:57;;;;;;;6.53;5.85;;;34.10;99.90;;;;;;5010452;28;20214;-67
2022/06/29 12:39:24;;;;;;;6.13;5.22;;;34.30;99.80;;;;;;5010724;28;20718;-67
2022/06/29 12:41:52;;;;;;;6.05;5.53;;;34.10;99.90;;;;;;5007097;28;20204;-67
2022/06/29 12:44:19;;;;;;;7.65;5.70;;;33.40;99.90;;;;;;5008687;28;20266;-67
2022/06/29 12:46:46;;;;;;;8.38;6.20;;;32.60;99.90;;;;;;5010142;28;20240;-67
2022/06/29 12:49:13;;;;;;;7.43;6.00;;;32.40;99.90;;;;;;5010383;28;20196;-67
2022/06/29 12:51:41;;;;;;;7.38;5.90;;;31.90;99.90;;;;;;5007354;28;20200;-67
2022/06/29 12:54:07;;;;;;;7.35;5.75;;;31.90;99.90;;;;;;5006438;28;20208;-67
2022/06/29 12:56:34;;;;;;;6.63;5.95;;;31.40;99.90;;;;;;5012873;28;20203;-67
2022/06/29 12:59:01;;;;;;;12.18;7.30;;;31.20;99.90;;;;;;5010087;28;20216;-67
2022/06/29 13:01:27;;;;;;;8.77;6.55;;;31.10;99.90;;;;;;5009597;28;20220;-67
2022/06/29 13:04:00;;;;;;;7.55;6.85;;;30.90;99.90;;;;;;5001805;28;20192;-67
2022/06/29 13:06:27;;;;;;;8.63;6.25;;;31.20;99.90;;;;;;5009972;28;20189;-67
2022/06/29 13:08:54;;;;;;;7.32;6.30;;;31.40;99.90;;;;;;5009943;28;20200;-67
2022/06/29 13:11:20;;;;;;;6.65;5.85;;;31.60;99.90;;;;;;5010689;28;20204;-67
2022/06/29 13:13:47;;;;;;;6.57;5.95;;;32.10;99.90;;;;;;5002033;28;20200;-67
2022/06/29 13:16:14;;;;;;;7.70;6.20;;;32.70;99.90;;;;;;5010026;28;20607;-67
2022/06/29 13:18:40;;;;;;;7.38;5.78;;;33.00;99.90;;;;;;5009645;28;20250;-67